sensor_id;sensor_type;location;lat;lon;timestamp;temperature;humidity
30371;DHT22;17164;48.590;11.410;2023-08-08T00:00:39;12.40;99.90
30371;DHT22;17164;48.590;11.410;2023-08-08T00:03:05;12.40;99.90
30371;DHT22;17164;48.590;11.410;2023-08-08T00:05:30;12.40;99.90
30371;DHT22;17164;48.590;11.410;2023-08-08T00:07:56;12.40;99.90
30371;DHT22;17164;48.590;11.410;2023-08-08T00:10:21;12.40;99.90
30371;DHT22;17164;48.590;11.410;2023-08-08T00:12:47;12.40;99.90
30371;DHT22;17164;48.590;11.410;2023-08-08T00:15:13;12.40;99.90
30371;DHT22;17164;48.590;11.410;2023-08-08T00:17:38;12.40;99.90
30371;DHT22;17164;48.590;11.410;2023-08-08T00:20:04;12.40;99.90
30371;DHT22;17164;48.590;11.410;2023-08-08T00:22:30;12.30;99.90
30371;DHT22;17164;48.590;11.410;2023-08-08T00:24:56;12.30;99.90
30371;DHT22;17164;48.590;11.410;2023-08-08T00:27:22;12.30;99.90
30371;DHT22;17164;48.590;11.410;2023-08-08T00:29:47;12.30;99.90
30371;DHT22;17164;48.590;11.410;2023-08-08T00:32:13;12.30;99.90
30371;DHT22;17164;48.590;11.410;2023-08-08T00:34:39;12.30;99.90
30371;DHT22;17164;48.590;11.410;2023-08-08T00:37:04;12.30;99.90
30371;DHT22;17164;48.590;11.410;2023-08-08T00:39:30;12.30;99.90
30371;DHT22;17164;48.590;11.410;2023-08-08T00:41:56;12.30;99.90
30371;DHT22;17164;48.590;11.410;2023-08-08T00:44:21;12.30;99.90
30371;DHT22;17164;48.590;11.410;2023-08-08T00:46:47;12.30;99.90
30371;DHT22;17164;48.590;11.410;2023-08-08T00:49:12;12.30;99.90
30371;DHT22;17164;48.590;11.410;2023-08-08T00:51:38;12.30;99.90
30371;DHT22;17164;48.590;11.410;2023-08-08T00:54:04;12.30;99.90
30371;DHT22;17164;48.590;11.410;2023-08-08T00:56:31;12.20;99.90
30371;DHT22;17164;48.590;11.410;2023-08-08T00:58:57;12.20;99.90
30371;DHT22;17164;48.590;11.410;2023-08-08T01:01:23;12.20;99.90
30371;DHT22;17164;48.590;11.410;2023-08-08T01:03:49;12.20;99.90
30371;DHT22;17164;48.590;11.410;2023-08-08T01:06:37;12.20;99.90
30371;DHT22;17164;48.590;11.410;2023-08-08T01:12:12;12.30;99.90
30371;DHT22;17164;48.590;11.410;2023-08-08T01:14:41;12.30;99.90
30371;DHT22;17164;48.590;11.410;2023-08-08T01:17:07;12.40;99.90
30371;DHT22;17164;48.590;11.410;2023-08-08T01:19:33;12.40;99.90
30371;DHT22;17164;48.590;11.410;2023-08-08T01:22:05;12.50;99.90
30371;DHT22;17164;48.590;11.410;2023-08-08T01:24:33;12.50;99.90
30371;DHT22;17164;48.590;11.410;2023-08-08T01:27:02;12.50;99.90
30371;DHT22;17164;48.590;11.410;2023-08-08T01:29:28;12.60;99.90
30371;DHT22;17164;48.590;11.410;2023-08-08T01:31:54;12.60;99.90
30371;DHT22;17164;48.590;11.410;2023-08-08T01:34:20;12.60;99.90
30371;DHT22;17164;48.590;11.410;2023-08-08T01:36:55;12.60;99.90
30371;DHT22;17164;48.590;11.410;2023-08-08T01:39:30;12.60;99.90
30371;DHT22;17164;48.590;11.410;2023-08-08T01:41:56;12.60;99.90
30371;DHT22;17164;48.590;11.410;2023-08-08T01:44:24;12.60;99.90
30371;DHT22;17164;48.590;11.410;2023-08-08T01:46:51;12.70;99.90
30371;DHT22;17164;48.590;11.410;2023-08-08T01:49:17;12.70;99.90
30371;DHT22;17164;48.590;11.410;2023-08-08T01:51:43;12.70;99.90
30371;DHT22;17164;48.590;11.410;2023-08-08T01:54:08;12.70;99.90
30371;DHT22;17164;48.590;11.410;2023-08-08T01:56:34;12.70;99.90
30371;DHT22;17164;48.590;11.410;2023-08-08T01:59:00;12.60;99.90
30371;DHT22;17164;48.590;11.410;2023-08-08T02:01:25;12.70;99.90
30371;DHT22;17164;48.590;11.410;2023-08-08T02:03:51;12.70;99.90
30371;DHT22;17164;48.590;11.410;2023-08-08T02:06:17;12.70;99.90
30371;DHT22;17164;48.590;11.410;2023-08-08T02:08:42;12.70;99.90
30371;DHT22;17164;48.590;11.410;2023-08-08T02:11:08;12.70;99.90
30371;DHT22;17164;48.590;11.410;2023-08-08T02:13:33;12.70;99.90
30371;DHT22;17164;48.590;11.410;2023-08-08T02:15:59;12.70;99.90
30371;DHT22;17164;48.590;11.410;2023-08-08T02:18:25;12.60;99.90
30371;DHT22;17164;48.590;11.410;2023-08-08T02:20:50;12.60;99.90
30371;DHT22;17164;48.590;11.410;2023-08-08T02:23:16;12.60;99.90
30371;DHT22;17164;48.590;11.410;2023-08-08T02:25:41;12.50;99.90
30371;DHT22;17164;48.590;11.410;2023-08-08T02:28:07;12.50;99.90
30371;DHT22;17164;48.590;11.410;2023-08-08T02:30:33;12.50;99.90
30371;DHT22;17164;48.590;11.410;2023-08-08T02:32:58;12.50;99.90
30371;DHT22;17164;48.590;11.410;2023-08-08T02:35:24;12.50;99.90
30371;DHT22;17164;48.590;11.410;2023-08-08T02:37:49;12.50;99.90
30371;DHT22;17164;48.590;11.410;2023-08-08T02:40:15;12.50;99.90
30371;DHT22;17164;48.590;11.410;2023-08-08T02:42:41;12.50;99.90
30371;DHT22;17164;48.590;11.410;2023-08-08T02:45:06;12.50;99.90
30371;DHT22;17164;48.590;11.410;2023-08-08T02:47:32;12.40;99.90
30371;DHT22;17164;48.590;11.410;2023-08-08T02:49:58;12.40;99.90
30371;DHT22;17164;48.590;11.410;2023-08-08T02:52:23;12.40;99.90
30371;DHT22;17164;48.590;11.410;2023-08-08T02:54:49;12.40;99.90
30371;DHT22;17164;48.590;11.410;2023-08-08T02:57:15;12.40;99.90
30371;DHT22;17164;48.590;11.410;2023-08-08T02:59:41;12.40;99.90
30371;DHT22;17164;48.590;11.410;2023-08-08T03:02:06;12.40;99.90
30371;DHT22;17164;48.590;11.410;2023-08-08T03:04:32;12.40;99.90
30371;DHT22;17164;48.590;11.410;2023-08-08T03:06:57;12.40;99.90
30371;DHT22;17164;48.590;11.410;2023-08-08T03:09:23;12.40;99.90
30371;DHT22;17164;48.590;11.410;2023-08-08T03:11:49;12.40;99.90
30371;DHT22;17164;48.590;11.410;2023-08-08T03:14:14;12.50;99.90
30371;DHT22;17164;48.590;11.410;2023-08-08T03:16:40;12.40;99.90
30371;DHT22;17164;48.590;11.410;2023-08-08T03:19:06;12.50;99.90
30371;DHT22;17164;48.590;11.410;2023-08-08T03:21:31;12.50;99.90
30371;DHT22;17164;48.590;11.410;2023-08-08T03:23:57;12.50;99.90
30371;DHT22;17164;48.590;11.410;2023-08-08T03:26:23;12.50;99.90
30371;DHT22;17164;48.590;11.410;2023-08-08T03:28:49;12.60;99.90
30371;DHT22;17164;48.590;11.410;2023-08-08T03:31:16;12.60;99.90
30371;DHT22;17164;48.590;11.410;2023-08-08T03:33:42;12.60;99.90
30371;DHT22;17164;48.590;11.410;2023-08-08T03:36:08;12.60;99.90
30371;DHT22;17164;48.590;11.410;2023-08-08T03:38:34;12.60;99.90
30371;DHT22;17164;48.590;11.410;2023-08-08T03:41:00;12.60;99.90
30371;DHT22;17164;48.590;11.410;2023-08-08T03:43:26;12.60;99.90
30371;DHT22;17164;48.590;11.410;2023-08-08T03:45:52;12.60;99.90
30371;DHT22;17164;48.590;11.410;2023-08-08T03:48:17;12.60;99.90
30371;DHT22;17164;48.590;11.410;2023-08-08T03:50:43;12.60;99.90
30371;DHT22;17164;48.590;11.410;2023-08-08T03:53:08;12.60;99.90
30371;DHT22;17164;48.590;11.410;2023-08-08T03:55:34;12.70;99.90
30371;DHT22;17164;48.590;11.410;2023-08-08T03:58:00;12.70;99.90
30371;DHT22;17164;48.590;11.410;2023-08-08T04:00:25;12.70;99.90
30371;DHT22;17164;48.590;11.410;2023-08-08T04:02:51;12.60;99.90
30371;DHT22;17164;48.590;11.410;2023-08-08T04:05:17;12.70;99.90
30371;DHT22;17164;48.590;11.410;2023-08-08T04:07:42;12.60;99.90
30371;DHT22;17164;48.590;11.410;2023-08-08T04:10:08;12.60;99.90
30371;DHT22;17164;48.590;11.410;2023-08-08T04:12:34;12.60;99.90
30371;DHT22;17164;48.590;11.410;2023-08-08T04:14:59;12.60;99.90
30371;DHT22;17164;48.590;11.410;2023-08-08T04:17:25;12.60;99.90
30371;DHT22;17164;48.590;11.410;2023-08-08T04:19:50;12.60;99.90
30371;DHT22;17164;48.590;11.410;2023-08-08T04:22:16;12.60;99.90
30371;DHT22;17164;48.590;11.410;2023-08-08T04:24:43;12.60;99.90
30371;DHT22;17164;48.590;11.410;2023-08-08T04:27:09;12.70;99.90
30371;DHT22;17164;48.590;11.410;2023-08-08T04:29:36;12.60;99.90
30371;DHT22;17164;48.590;11.410;2023-08-08T04:32:01;12.70;99.90
30371;DHT22;17164;48.590;11.410;2023-08-08T04:34:27;12.70;99.90
30371;DHT22;17164;48.590;11.410;2023-08-08T04:36:53;12.70;99.90
30371;DHT22;17164;48.590;11.410;2023-08-08T04:39:18;12.70;99.90
30371;DHT22;17164;48.590;11.410;2023-08-08T04:41:44;12.70;99.90
30371;DHT22;17164;48.590;11.410;2023-08-08T04:44:09;12.70;99.90
30371;DHT22;17164;48.590;11.410;2023-08-08T04:46:35;12.70;99.90
30371;DHT22;17164;48.590;11.410;2023-08-08T04:49:00;12.70;99.90
30371;DHT22;17164;48.590;11.410;2023-08-08T04:51:26;12.80;99.90
30371;DHT22;17164;48.590;11.410;2023-08-08T04:53:52;12.80;99.90
30371;DHT22;17164;48.590;11.410;2023-08-08T04:56:17;12.80;99.90
30371;DHT22;17164;48.590;11.410;2023-08-08T04:58:43;12.80;99.90
30371;DHT22;17164;48.590;11.410;2023-08-08T05:01:08;12.90;99.90
30371;DHT22;17164;48.590;11.410;2023-08-08T05:03:37;12.90;99.90
30371;DHT22;17164;48.590;11.410;2023-08-08T05:06:02;13.00;99.90
30371;DHT22;17164;48.590;11.410;2023-08-08T05:08:29;13.00;99.90
30371;DHT22;17164;48.590;11.410;2023-08-08T05:10:54;13.10;99.90
30371;DHT22;17164;48.590;11.410;2023-08-08T05:13:20;13.10;99.90
30371;DHT22;17164;48.590;11.410;2023-08-08T05:15:45;13.10;99.90
30371;DHT22;17164;48.590;11.410;2023-08-08T05:18:11;13.10;99.90
30371;DHT22;17164;48.590;11.410;2023-08-08T05:20:36;13.20;99.90
30371;DHT22;17164;48.590;11.410;2023-08-08T05:23:02;13.20;99.90
30371;DHT22;17164;48.590;11.410;2023-08-08T05:25:28;13.20;99.90
30371;DHT22;17164;48.590;11.410;2023-08-08T05:27:53;13.20;99.90
30371;DHT22;17164;48.590;11.410;2023-08-08T05:30:19;13.20;99.90
30371;DHT22;17164;48.590;11.410;2023-08-08T05:32:45;13.30;99.90
30371;DHT22;17164;48.590;11.410;2023-08-08T05:35:10;13.30;99.90
30371;DHT22;17164;48.590;11.410;2023-08-08T05:37:36;13.30;99.90
30371;DHT22;17164;48.590;11.410;2023-08-08T05:40:01;13.30;99.90
30371;DHT22;17164;48.590;11.410;2023-08-08T05:42:27;13.30;99.90
30371;DHT22;17164;48.590;11.410;2023-08-08T05:44:53;13.30;99.90
30371;DHT22;17164;48.590;11.410;2023-08-08T05:47:18;13.40;99.90
30371;DHT22;17164;48.590;11.410;2023-08-08T05:49:44;13.40;99.90
30371;DHT22;17164;48.590;11.410;2023-08-08T05:52:10;13.40;99.90
30371;DHT22;17164;48.590;11.410;2023-08-08T05:54:35;13.50;99.90
30371;DHT22;17164;48.590;11.410;2023-08-08T05:57:02;13.50;99.90
30371;DHT22;17164;48.590;11.410;2023-08-08T05:59:28;13.60;99.90
30371;DHT22;17164;48.590;11.410;2023-08-08T06:01:53;13.60;99.90
30371;DHT22;17164;48.590;11.410;2023-08-08T06:04:19;13.70;99.90
30371;DHT22;17164;48.590;11.410;2023-08-08T06:06:45;13.70;99.90
30371;DHT22;17164;48.590;11.410;2023-08-08T06:09:12;13.80;99.90
30371;DHT22;17164;48.590;11.410;2023-08-08T06:11:38;13.90;99.90
30371;DHT22;17164;48.590;11.410;2023-08-08T06:14:03;14.00;99.90
30371;DHT22;17164;48.590;11.410;2023-08-08T06:16:29;14.00;99.90
30371;DHT22;17164;48.590;11.410;2023-08-08T06:18:55;14.10;99.90
30371;DHT22;17164;48.590;11.410;2023-08-08T06:21:20;14.20;99.90
30371;DHT22;17164;48.590;11.410;2023-08-08T06:23:46;14.30;99.90
30371;DHT22;17164;48.590;11.410;2023-08-08T06:26:13;14.40;99.90
30371;DHT22;17164;48.590;11.410;2023-08-08T06:28:39;14.40;99.90
30371;DHT22;17164;48.590;11.410;2023-08-08T06:31:04;14.50;99.90
30371;DHT22;17164;48.590;11.410;2023-08-08T06:33:30;14.60;99.90
30371;DHT22;17164;48.590;11.410;2023-08-08T06:35:56;14.60;99.90
30371;DHT22;17164;48.590;11.410;2023-08-08T06:38:22;14.70;99.90
30371;DHT22;17164;48.590;11.410;2023-08-08T06:40:48;14.70;99.90
30371;DHT22;17164;48.590;11.410;2023-08-08T06:43:13;14.70;99.90
30371;DHT22;17164;48.590;11.410;2023-08-08T06:45:39;14.80;99.90
30371;DHT22;17164;48.590;11.410;2023-08-08T06:48:05;14.90;99.90
30371;DHT22;17164;48.590;11.410;2023-08-08T06:50:30;15.00;99.90
30371;DHT22;17164;48.590;11.410;2023-08-08T06:52:56;15.10;99.90
30371;DHT22;17164;48.590;11.410;2023-08-08T06:55:21;15.30;99.90
30371;DHT22;17164;48.590;11.410;2023-08-08T06:57:47;15.30;99.90
30371;DHT22;17164;48.590;11.410;2023-08-08T07:00:13;15.40;99.90
30371;DHT22;17164;48.590;11.410;2023-08-08T07:02:39;15.50;99.90
30371;DHT22;17164;48.590;11.410;2023-08-08T07:05:06;15.70;99.90
30371;DHT22;17164;48.590;11.410;2023-08-08T07:07:32;15.80;99.90
30371;DHT22;17164;48.590;11.410;2023-08-08T07:09:59;15.90;99.90
30371;DHT22;17164;48.590;11.410;2023-08-08T07:12:25;16.10;99.90
30371;DHT22;17164;48.590;11.410;2023-08-08T07:14:50;16.20;99.90
30371;DHT22;17164;48.590;11.410;2023-08-08T07:17:16;16.30;99.90
30371;DHT22;17164;48.590;11.410;2023-08-08T07:19:42;16.30;99.90
30371;DHT22;17164;48.590;11.410;2023-08-08T07:22:07;16.30;99.90
30371;DHT22;17164;48.590;11.410;2023-08-08T07:24:34;16.30;99.90
30371;DHT22;17164;48.590;11.410;2023-08-08T07:26:59;16.30;99.90
30371;DHT22;17164;48.590;11.410;2023-08-08T07:29:25;16.30;99.90
30371;DHT22;17164;48.590;11.410;2023-08-08T07:31:54;16.30;99.90
30371;DHT22;17164;48.590;11.410;2023-08-08T07:34:20;16.30;99.90
30371;DHT22;17164;48.590;11.410;2023-08-08T07:36:46;16.40;99.90
30371;DHT22;17164;48.590;11.410;2023-08-08T07:39:12;16.40;99.90
30371;DHT22;17164;48.590;11.410;2023-08-08T07:41:38;16.40;99.90
30371;DHT22;17164;48.590;11.410;2023-08-08T07:44:04;16.40;99.90
30371;DHT22;17164;48.590;11.410;2023-08-08T07:46:30;16.40;99.90
30371;DHT22;17164;48.590;11.410;2023-08-08T07:48:56;16.40;99.90
30371;DHT22;17164;48.590;11.410;2023-08-08T07:51:24;16.40;99.90
30371;DHT22;17164;48.590;11.410;2023-08-08T07:53:50;16.30;99.90
30371;DHT22;17164;48.590;11.410;2023-08-08T07:56:16;16.30;99.90
30371;DHT22;17164;48.590;11.410;2023-08-08T07:58:41;16.30;99.90
30371;DHT22;17164;48.590;11.410;2023-08-08T08:01:07;16.30;99.90
30371;DHT22;17164;48.590;11.410;2023-08-08T08:03:32;16.30;99.90
30371;DHT22;17164;48.590;11.410;2023-08-08T08:05:58;16.30;99.90
30371;DHT22;17164;48.590;11.410;2023-08-08T08:08:23;16.50;99.90
30371;DHT22;17164;48.590;11.410;2023-08-08T08:10:50;16.60;99.90
30371;DHT22;17164;48.590;11.410;2023-08-08T08:13:16;16.90;99.90
30371;DHT22;17164;48.590;11.410;2023-08-08T08:15:42;17.00;99.90
30371;DHT22;17164;48.590;11.410;2023-08-08T08:18:08;17.20;99.90
30371;DHT22;17164;48.590;11.410;2023-08-08T08:20:34;17.40;99.90
30371;DHT22;17164;48.590;11.410;2023-08-08T08:22:59;17.50;99.90
30371;DHT22;17164;48.590;11.410;2023-08-08T08:25:25;17.60;99.90
30371;DHT22;17164;48.590;11.410;2023-08-08T08:27:50;17.70;99.90
30371;DHT22;17164;48.590;11.410;2023-08-08T08:30:16;17.80;99.90
30371;DHT22;17164;48.590;11.410;2023-08-08T08:32:43;17.90;99.90
30371;DHT22;17164;48.590;11.410;2023-08-08T08:35:09;17.90;99.90
30371;DHT22;17164;48.590;11.410;2023-08-08T08:37:35;18.00;99.90
30371;DHT22;17164;48.590;11.410;2023-08-08T08:40:01;18.10;99.90
30371;DHT22;17164;48.590;11.410;2023-08-08T08:42:27;18.10;99.90
30371;DHT22;17164;48.590;11.410;2023-08-08T08:44:57;18.20;99.90
30371;DHT22;17164;48.590;11.410;2023-08-08T08:47:24;18.40;99.90
30371;DHT22;17164;48.590;11.410;2023-08-08T08:49:52;18.60;99.90
30371;DHT22;17164;48.590;11.410;2023-08-08T08:52:18;18.70;99.90
30371;DHT22;17164;48.590;11.410;2023-08-08T08:54:44;18.80;99.90
30371;DHT22;17164;48.590;11.410;2023-08-08T08:57:10;19.00;99.90
30371;DHT22;17164;48.590;11.410;2023-08-08T08:59:36;19.10;99.90
30371;DHT22;17164;48.590;11.410;2023-08-08T09:02:02;19.20;99.90
30371;DHT22;17164;48.590;11.410;2023-08-08T09:04:29;19.10;99.90
30371;DHT22;17164;48.590;11.410;2023-08-08T09:06:55;19.10;99.90
30371;DHT22;17164;48.590;11.410;2023-08-08T09:09:21;19.10;99.90
30371;DHT22;17164;48.590;11.410;2023-08-08T09:11:49;19.10;99.90
30371;DHT22;17164;48.590;11.410;2023-08-08T09:14:20;19.10;99.90
30371;DHT22;17164;48.590;11.410;2023-08-08T09:16:47;19.20;99.90
30371;DHT22;17164;48.590;11.410;2023-08-08T09:19:14;19.20;99.90
30371;DHT22;17164;48.590;11.410;2023-08-08T09:21:39;19.20;99.90
30371;DHT22;17164;48.590;11.410;2023-08-08T09:24:05;19.10;99.90
30371;DHT22;17164;48.590;11.410;2023-08-08T09:26:32;19.00;99.90
30371;DHT22;17164;48.590;11.410;2023-08-08T09:28:58;19.00;99.90
30371;DHT22;17164;48.590;11.410;2023-08-08T09:31:25;18.90;99.90
30371;DHT22;17164;48.590;11.410;2023-08-08T09:33:53;19.00;99.90
30371;DHT22;17164;48.590;11.410;2023-08-08T09:36:19;19.00;99.90
30371;DHT22;17164;48.590;11.410;2023-08-08T09:38:48;19.10;99.90
30371;DHT22;17164;48.590;11.410;2023-08-08T09:41:13;19.30;99.90
30371;DHT22;17164;48.590;11.410;2023-08-08T09:43:39;19.40;99.90
30371;DHT22;17164;48.590;11.410;2023-08-08T09:46:05;19.50;99.90
30371;DHT22;17164;48.590;11.410;2023-08-08T09:48:32;19.60;99.90
30371;DHT22;17164;48.590;11.410;2023-08-08T09:51:01;19.60;99.90
30371;DHT22;17164;48.590;11.410;2023-08-08T09:53:28;19.70;99.90
30371;DHT22;17164;48.590;11.410;2023-08-08T09:55:55;19.80;99.90
30371;DHT22;17164;48.590;11.410;2023-08-08T09:58:21;19.70;99.90
30371;DHT22;17164;48.590;11.410;2023-08-08T10:00:49;19.70;99.90
30371;DHT22;17164;48.590;11.410;2023-08-08T10:03:18;19.50;99.90
30371;DHT22;17164;48.590;11.410;2023-08-08T10:05:45;19.50;99.90
30371;DHT22;17164;48.590;11.410;2023-08-08T10:08:11;19.40;99.90
30371;DHT22;17164;48.590;11.410;2023-08-08T10:10:37;19.40;99.90
30371;DHT22;17164;48.590;11.410;2023-08-08T10:13:03;19.40;99.90
30371;DHT22;17164;48.590;11.410;2023-08-08T10:15:30;19.30;99.90
30371;DHT22;17164;48.590;11.410;2023-08-08T10:17:57;19.30;99.90
30371;DHT22;17164;48.590;11.410;2023-08-08T10:20:24;19.30;99.90
30371;DHT22;17164;48.590;11.410;2023-08-08T10:22:53;19.30;99.90
30371;DHT22;17164;48.590;11.410;2023-08-08T10:25:27;19.40;99.90
30371;DHT22;17164;48.590;11.410;2023-08-08T10:28:11;19.40;99.90
30371;DHT22;17164;48.590;11.410;2023-08-08T10:33:19;19.60;99.90
30371;DHT22;17164;48.590;11.410;2023-08-08T10:35:58;19.50;99.90
30371;DHT22;17164;48.590;11.410;2023-08-08T10:38:25;19.50;99.90
30371;DHT22;17164;48.590;11.410;2023-08-08T10:41:15;19.40;99.90
30371;DHT22;17164;48.590;11.410;2023-08-08T10:43:56;19.40;99.90
30371;DHT22;17164;48.590;11.410;2023-08-08T10:46:32;19.40;99.90
30371;DHT22;17164;48.590;11.410;2023-08-08T10:49:01;19.40;99.90
30371;DHT22;17164;48.590;11.410;2023-08-08T10:51:37;19.40;99.90
30371;DHT22;17164;48.590;11.410;2023-08-08T10:54:05;19.40;99.90
30371;DHT22;17164;48.590;11.410;2023-08-08T10:56:31;19.40;99.90
30371;DHT22;17164;48.590;11.410;2023-08-08T10:58:57;19.60;99.90
30371;DHT22;17164;48.590;11.410;2023-08-08T11:01:25;19.80;99.90
30371;DHT22;17164;48.590;11.410;2023-08-08T11:03:52;20.10;99.90
30371;DHT22;17164;48.590;11.410;2023-08-08T11:06:18;20.30;99.90
30371;DHT22;17164;48.590;11.410;2023-08-08T11:08:44;20.40;99.90
30371;DHT22;17164;48.590;11.410;2023-08-08T11:11:10;20.40;99.90
30371;DHT22;17164;48.590;11.410;2023-08-08T11:13:35;20.30;99.90
30371;DHT22;17164;48.590;11.410;2023-08-08T11:16:01;20.30;99.90
30371;DHT22;17164;48.590;11.410;2023-08-08T11:18:29;20.40;99.90
30371;DHT22;17164;48.590;11.410;2023-08-08T11:20:55;20.60;99.70
30371;DHT22;17164;48.590;11.410;2023-08-08T11:23:21;20.80;99.90
30371;DHT22;17164;48.590;11.410;2023-08-08T11:25:47;21.00;99.90
30371;DHT22;17164;48.590;11.410;2023-08-08T11:28:13;21.30;98.00
30371;DHT22;17164;48.590;11.410;2023-08-08T11:30:44;21.30;98.60
30371;DHT22;17164;48.590;11.410;2023-08-08T11:33:13;21.40;98.20
30371;DHT22;17164;48.590;11.410;2023-08-08T11:35:44;21.30;97.60
30371;DHT22;17164;48.590;11.410;2023-08-08T11:38:14;21.20;97.20
30371;DHT22;17164;48.590;11.410;2023-08-08T11:40:41;21.00;98.10
30371;DHT22;17164;48.590;11.410;2023-08-08T11:43:07;20.80;98.10
30371;DHT22;17164;48.590;11.410;2023-08-08T11:45:33;20.70;98.60
30371;DHT22;17164;48.590;11.410;2023-08-08T11:47:59;20.70;98.00
30371;DHT22;17164;48.590;11.410;2023-08-08T11:50:25;20.70;98.10
30371;DHT22;17164;48.590;11.410;2023-08-08T11:52:53;20.60;98.90
30371;DHT22;17164;48.590;11.410;2023-08-08T11:55:20;20.60;97.80
30371;DHT22;17164;48.590;11.410;2023-08-08T11:57:48;20.50;98.10
30371;DHT22;17164;48.590;11.410;2023-08-08T12:00:15;20.60;99.00
30371;DHT22;17164;48.590;11.410;2023-08-08T12:02:42;20.70;98.80
30371;DHT22;17164;48.590;11.410;2023-08-08T12:05:09;20.80;98.20
30371;DHT22;17164;48.590;11.410;2023-08-08T12:07:37;20.70;97.40
30371;DHT22;17164;48.590;11.410;2023-08-08T12:10:04;20.60;98.20
30371;DHT22;17164;48.590;11.410;2023-08-08T12:12:31;20.50;98.40
30371;DHT22;17164;48.590;11.410;2023-08-08T12:15:03;20.50;98.20
30371;DHT22;17164;48.590;11.410;2023-08-08T12:17:29;20.60;97.40
30371;DHT22;17164;48.590;11.410;2023-08-08T12:19:54;20.70;96.30
30371;DHT22;17164;48.590;11.410;2023-08-08T12:22:23;20.80;97.20
30371;DHT22;17164;48.590;11.410;2023-08-08T12:24:49;21.00;96.60
30371;DHT22;17164;48.590;11.410;2023-08-08T12:27:15;21.00;97.30
30371;DHT22;17164;48.590;11.410;2023-08-08T12:29:40;21.00;96.80
30371;DHT22;17164;48.590;11.410;2023-08-08T12:32:06;20.90;97.90
30371;DHT22;17164;48.590;11.410;2023-08-08T12:34:34;20.70;98.40
30371;DHT22;17164;48.590;11.410;2023-08-08T12:36:59;20.60;98.20
30371;DHT22;17164;48.590;11.410;2023-08-08T12:39:25;20.40;97.70
30371;DHT22;17164;48.590;11.410;2023-08-08T12:41:50;20.40;98.30
30371;DHT22;17164;48.590;11.410;2023-08-08T12:44:16;20.50;99.90
30371;DHT22;17164;48.590;11.410;2023-08-08T12:46:42;20.60;99.90
30371;DHT22;17164;48.590;11.410;2023-08-08T12:49:07;20.80;99.90
30371;DHT22;17164;48.590;11.410;2023-08-08T12:51:33;21.00;99.90
30371;DHT22;17164;48.590;11.410;2023-08-08T12:53:59;21.20;99.10
30371;DHT22;17164;48.590;11.410;2023-08-08T12:56:25;21.40;97.20
30371;DHT22;17164;48.590;11.410;2023-08-08T12:58:51;21.60;96.10
30371;DHT22;17164;48.590;11.410;2023-08-08T13:01:16;21.80;96.60
30371;DHT22;17164;48.590;11.410;2023-08-08T13:03:42;21.90;95.70
30371;DHT22;17164;48.590;11.410;2023-08-08T13:06:08;22.00;93.80
30371;DHT22;17164;48.590;11.410;2023-08-08T13:08:36;22.00;95.70
30371;DHT22;17164;48.590;11.410;2023-08-08T13:11:02;22.00;94.20
30371;DHT22;17164;48.590;11.410;2023-08-08T13:13:28;22.00;94.40
30371;DHT22;17164;48.590;11.410;2023-08-08T13:15:54;21.80;94.90
30371;DHT22;17164;48.590;11.410;2023-08-08T13:18:19;21.70;95.50
30371;DHT22;17164;48.590;11.410;2023-08-08T13:20:45;21.70;94.10
30371;DHT22;17164;48.590;11.410;2023-08-08T13:23:11;21.70;96.50
30371;DHT22;17164;48.590;11.410;2023-08-08T13:25:37;21.90;96.10
30371;DHT22;17164;48.590;11.410;2023-08-08T13:28:03;22.20;94.60
30371;DHT22;17164;48.590;11.410;2023-08-08T13:30:29;22.30;93.30
30371;DHT22;17164;48.590;11.410;2023-08-08T13:32:55;22.30;92.70
30371;DHT22;17164;48.590;11.410;2023-08-08T13:35:21;22.20;93.50
30371;DHT22;17164;48.590;11.410;2023-08-08T13:37:46;22.30;92.70
30371;DHT22;17164;48.590;11.410;2023-08-08T13:40:16;22.40;92.20
30371;DHT22;17164;48.590;11.410;2023-08-08T13:42:42;22.40;91.60
30371;DHT22;17164;48.590;11.410;2023-08-08T13:45:09;22.30;92.00
30371;DHT22;17164;48.590;11.410;2023-08-08T13:47:35;22.20;93.60
30371;DHT22;17164;48.590;11.410;2023-08-08T13:50:01;22.10;93.10
30371;DHT22;17164;48.590;11.410;2023-08-08T13:52:26;22.00;93.80
30371;DHT22;17164;48.590;11.410;2023-08-08T13:54:52;21.90;91.70
30371;DHT22;17164;48.590;11.410;2023-08-08T13:57:19;21.90;91.30
30371;DHT22;17164;48.590;11.410;2023-08-08T13:59:45;21.80;91.80
30371;DHT22;17164;48.590;11.410;2023-08-08T14:02:10;21.80;91.50
30371;DHT22;17164;48.590;11.410;2023-08-08T14:04:36;21.80;90.80
30371;DHT22;17164;48.590;11.410;2023-08-08T14:07:01;21.90;89.80
30371;DHT22;17164;48.590;11.410;2023-08-08T14:09:27;21.90;91.50
30371;DHT22;17164;48.590;11.410;2023-08-08T14:11:53;21.90;91.70
30371;DHT22;17164;48.590;11.410;2023-08-08T14:14:18;22.00;90.10
30371;DHT22;17164;48.590;11.410;2023-08-08T14:16:44;22.10;87.10
30371;DHT22;17164;48.590;11.410;2023-08-08T14:19:09;22.00;87.70
30371;DHT22;17164;48.590;11.410;2023-08-08T14:21:35;21.90;86.50
30371;DHT22;17164;48.590;11.410;2023-08-08T14:24:01;21.80;88.00
30371;DHT22;17164;48.590;11.410;2023-08-08T14:26:29;21.70;89.80
30371;DHT22;17164;48.590;11.410;2023-08-08T14:28:54;21.70;88.30
30371;DHT22;17164;48.590;11.410;2023-08-08T14:31:20;21.80;85.90
30371;DHT22;17164;48.590;11.410;2023-08-08T14:33:45;21.70;87.50
30371;DHT22;17164;48.590;11.410;2023-08-08T14:36:11;21.80;85.50
30371;DHT22;17164;48.590;11.410;2023-08-08T14:38:36;21.80;88.40
30371;DHT22;17164;48.590;11.410;2023-08-08T14:41:02;21.80;88.40
30371;DHT22;17164;48.590;11.410;2023-08-08T14:43:29;21.80;89.00
30371;DHT22;17164;48.590;11.410;2023-08-08T14:45:54;21.80;89.40
30371;DHT22;17164;48.590;11.410;2023-08-08T14:48:20;21.80;89.70
30371;DHT22;17164;48.590;11.410;2023-08-08T14:50:46;21.90;88.80
30371;DHT22;17164;48.590;11.410;2023-08-08T14:53:11;22.10;90.10
30371;DHT22;17164;48.590;11.410;2023-08-08T14:55:38;22.30;90.60
30371;DHT22;17164;48.590;11.410;2023-08-08T14:58:04;22.30;86.50
30371;DHT22;17164;48.590;11.410;2023-08-08T15:00:30;22.40;84.60
30371;DHT22;17164;48.590;11.410;2023-08-08T15:02:55;22.50;84.90
30371;DHT22;17164;48.590;11.410;2023-08-08T15:05:22;22.60;86.20
30371;DHT22;17164;48.590;11.410;2023-08-08T15:07:48;22.70;82.50
30371;DHT22;17164;48.590;11.410;2023-08-08T15:10:14;22.80;79.50
30371;DHT22;17164;48.590;11.410;2023-08-08T15:12:40;22.70;82.40
30371;DHT22;17164;48.590;11.410;2023-08-08T15:15:06;22.70;81.20